sensor_id;sensor_type;location;lat;lon;timestamp;P1;durP1;ratioP1;P2;durP2;ratioP2
51006;SDS011;37034;47.886;-3.904;2023-11-19T00:02:21;72.53;;;10.17;;
51006;SDS011;37034;47.886;-3.904;2023-11-19T00:04:47;65.93;;;9.32;;
51006;SDS011;37034;47.886;-3.904;2023-11-19T00:07:13;66.40;;;10.75;;
51006;SDS011;37034;47.886;-3.904;2023-11-19T00:09:39;75.20;;;9.63;;
51006;SDS011;37034;47.886;-3.904;2023-11-19T00:12:05;73.60;;;9.80;;
51006;SDS011;37034;47.886;-3.904;2023-11-19T00:14:32;75.53;;;10.40;;
51006;SDS011;37034;47.886;-3.904;2023-11-19T00:16:58;58.22;;;9.63;;
51006;SDS011;37034;47.886;-3.904;2023-11-19T00:19:24;66.15;;;10.40;;
51006;SDS011;37034;47.886;-3.904;2023-11-19T00:21:49;74.43;;;10.40;;
51006;SDS011;37034;47.886;-3.904;2023-11-19T00:24:15;61.83;;;8.48;;
51006;SDS011;37034;47.886;-3.904;2023-11-19T00:26:41;84.60;;;10.52;;
51006;SDS011;37034;47.886;-3.904;2023-11-19T00:29:07;79.78;;;9.77;;
51006;SDS011;37034;47.886;-3.904;2023-11-19T00:31:33;65.93;;;9.02;;
51006;SDS011;37034;47.886;-3.904;2023-11-19T00:33:59;76.77;;;11.47;;
51006;SDS011;37034;47.886;-3.904;2023-11-19T00:36:24;68.20;;;10.20;;
51006;SDS011;37034;47.886;-3.904;2023-11-19T00:38:50;75.00;;;10.83;;
51006;SDS011;37034;47.886;-3.904;2023-11-19T00:41:17;64.15;;;9.05;;
51006;SDS011;37034;47.886;-3.904;2023-11-19T00:43:43;75.63;;;9.85;;
51006;SDS011;37034;47.886;-3.904;2023-11-19T00:46:09;72.90;;;10.15;;
51006;SDS011;37034;47.886;-3.904;2023-11-19T00:48:39;75.50;;;10.20;;
51006;SDS011;37034;47.886;-3.904;2023-11-19T00:51:05;62.30;;;9.10;;
51006;SDS011;37034;47.886;-3.904;2023-11-19T00:53:31;75.80;;;10.55;;
51006;SDS011;37034;47.886;-3.904;2023-11-19T00:55:57;70.25;;;9.85;;
51006;SDS011;37034;47.886;-3.904;2023-11-19T00:58:23;65.38;;;10.23;;
51006;SDS011;37034;47.886;-3.904;2023-11-19T01:00:49;80.65;;;9.93;;
51006;SDS011;37034;47.886;-3.904;2023-11-19T01:03:14;85.25;;;12.10;;
51006;SDS011;37034;47.886;-3.904;2023-11-19T01:05:41;70.28;;;9.93;;
51006;SDS011;37034;47.886;-3.904;2023-11-19T01:08:07;84.72;;;12.82;;
51006;SDS011;37034;47.886;-3.904;2023-11-19T01:10:33;75.53;;;9.48;;
51006;SDS011;37034;47.886;-3.904;2023-11-19T01:12:59;91.75;;;12.85;;
51006;SDS011;37034;47.886;-3.904;2023-11-19T01:15:25;91.10;;;12.63;;
51006;SDS011;37034;47.886;-3.904;2023-11-19T01:17:51;72.85;;;11.63;;
51006;SDS011;37034;47.886;-3.904;2023-11-19T01:20:17;84.57;;;11.25;;
51006;SDS011;37034;47.886;-3.904;2023-11-19T01:22:43;82.82;;;9.75;;
51006;SDS011;37034;47.886;-3.904;2023-11-19T01:25:09;81.65;;;10.27;;
51006;SDS011;37034;47.886;-3.904;2023-11-19T01:27:35;85.77;;;13.30;;
51006;SDS011;37034;47.886;-3.904;2023-11-19T01:30:01;72.75;;;10.70;;
51006;SDS011;37034;47.886;-3.904;2023-11-19T01:32:31;74.95;;;11.05;;
51006;SDS011;37034;47.886;-3.904;2023-11-19T01:34:57;68.13;;;10.48;;
51006;SDS011;37034;47.886;-3.904;2023-11-19T01:37:23;73.22;;;10.52;;
51006;SDS011;37034;47.886;-3.904;2023-11-19T01:39:48;78.10;;;10.83;;
51006;SDS011;37034;47.886;-3.904;2023-11-19T01:42:14;70.00;;;10.13;;
51006;SDS011;37034;47.886;-3.904;2023-11-19T01:44:40;77.28;;;10.27;;
51006;SDS011;37034;47.886;-3.904;2023-11-19T01:47:06;79.50;;;10.57;;
51006;SDS011;37034;47.886;-3.904;2023-11-19T01:49:33;74.07;;;10.13;;
51006;SDS011;37034;47.886;-3.904;2023-11-19T01:51:59;78.45;;;10.63;;
51006;SDS011;37034;47.886;-3.904;2023-11-19T01:54:26;99.43;;;12.05;;
51006;SDS011;37034;47.886;-3.904;2023-11-19T01:56:53;73.88;;;11.20;;
51006;SDS011;37034;47.886;-3.904;2023-11-19T01:59:21;84.85;;;12.65;;
51006;SDS011;37034;47.886;-3.904;2023-11-19T02:01:52;74.35;;;10.77;;
51006;SDS011;37034;47.886;-3.904;2023-11-19T02:04:19;84.57;;;11.32;;
51006;SDS011;37034;47.886;-3.904;2023-11-19T02:09:13;75.93;;;11.00;;
51006;SDS011;37034;47.886;-3.904;2023-11-19T02:11:41;82.43;;;10.63;;
51006;SDS011;37034;47.886;-3.904;2023-11-19T02:14:07;82.38;;;11.45;;
51006;SDS011;37034;47.886;-3.904;2023-11-19T02:16:33;81.17;;;11.47;;
51006;SDS011;37034;47.886;-3.904;2023-11-19T02:18:59;75.13;;;10.63;;
51006;SDS011;37034;47.886;-3.904;2023-11-19T02:21:25;77.00;;;10.87;;
51006;SDS011;37034;47.886;-3.904;2023-11-19T02:23:50;71.93;;;10.13;;
51006;SDS011;37034;47.886;-3.904;2023-11-19T02:29:16;89.75;;;10.73;;
51006;SDS011;37034;47.886;-3.904;2023-11-19T02:31:42;82.05;;;9.77;;
51006;SDS011;37034;47.886;-3.904;2023-11-19T02:34:09;77.18;;;11.00;;
51006;SDS011;37034;47.886;-3.904;2023-11-19T02:36:37;67.38;;;10.45;;
51006;SDS011;37034;47.886;-3.904;2023-11-19T02:39:03;67.37;;;8.80;;
51006;SDS011;37034;47.886;-3.904;2023-11-19T02:41:29;81.00;;;11.93;;
51006;SDS011;37034;47.886;-3.904;2023-11-19T02:43:55;64.93;;;9.48;;
51006;SDS011;37034;47.886;-3.904;2023-11-19T02:46:20;85.03;;;10.10;;
51006;SDS011;37034;47.886;-3.904;2023-11-19T02:48:46;83.10;;;11.03;;
51006;SDS011;37034;47.886;-3.904;2023-11-19T02:51:12;86.10;;;10.97;;
51006;SDS011;37034;47.886;-3.904;2023-11-19T02:53:37;61.85;;;10.18;;
51006;SDS011;37034;47.886;-3.904;2023-11-19T02:56:04;84.03;;;10.05;;
51006;SDS011;37034;47.886;-3.904;2023-11-19T02:58:43;73.90;;;9.98;;
51006;SDS011;37034;47.886;-3.904;2023-11-19T03:01:10;78.38;;;9.63;;
51006;SDS011;37034;47.886;-3.904;2023-11-19T03:03:44;63.20;;;8.27;;
51006;SDS011;37034;47.886;-3.904;2023-11-19T03:06:14;68.28;;;8.95;;
51006;SDS011;37034;47.886;-3.904;2023-11-19T03:08:40;63.43;;;9.67;;
51006;SDS011;37034;47.886;-3.904;2023-11-19T03:11:05;72.00;;;9.53;;
51006;SDS011;37034;47.886;-3.904;2023-11-19T03:13:31;68.05;;;10.10;;
51006;SDS011;37034;47.886;-3.904;2023-11-19T03:15:56;78.47;;;9.70;;
51006;SDS011;37034;47.886;-3.904;2023-11-19T03:18:22;76.00;;;11.27;;
51006;SDS011;37034;47.886;-3.904;2023-11-19T03:20:48;61.73;;;7.07;;
51006;SDS011;37034;47.886;-3.904;2023-11-19T03:23:14;68.88;;;8.93;;
51006;SDS011;37034;47.886;-3.904;2023-11-19T03:25:40;73.67;;;10.23;;
51006;SDS011;37034;47.886;-3.904;2023-11-19T03:28:06;82.10;;;10.20;;
51006;SDS011;37034;47.886;-3.904;2023-11-19T03:30:31;66.60;;;9.50;;
51006;SDS011;37034;47.886;-3.904;2023-11-19T03:32:58;71.85;;;10.68;;
51006;SDS011;37034;47.886;-3.904;2023-11-19T03:35:26;73.75;;;8.77;;
51006;SDS011;37034;47.886;-3.904;2023-11-19T03:37:53;79.45;;;10.80;;
51006;SDS011;37034;47.886;-3.904;2023-11-19T03:40:18;77.03;;;8.75;;
51006;SDS011;37034;47.886;-3.904;2023-11-19T03:42:45;79.97;;;11.10;;
51006;SDS011;37034;47.886;-3.904;2023-11-19T03:47:37;76.95;;;10.88;;
51006;SDS011;37034;47.886;-3.904;2023-11-19T03:52:29;62.80;;;10.02;;
51006;SDS011;37034;47.886;-3.904;2023-11-19T03:54:55;80.63;;;10.50;;
51006;SDS011;37034;47.886;-3.904;2023-11-19T03:57:22;69.57;;;9.02;;
51006;SDS011;37034;47.886;-3.904;2023-11-19T03:59:48;67.82;;;10.25;;
51006;SDS011;37034;47.886;-3.904;2023-11-19T04:02:14;69.73;;;8.50;;
51006;SDS011;37034;47.886;-3.904;2023-11-19T04:04:41;61.20;;;8.88;;
51006;SDS011;37034;47.886;-3.904;2023-11-19T04:07:07;68.43;;;9.70;;
51006;SDS011;37034;47.886;-3.904;2023-11-19T04:09:32;69.20;;;10.10;;
51006;SDS011;37034;47.886;-3.904;2023-11-19T04:11:59;54.47;;;8.23;;
51006;SDS011;37034;47.886;-3.904;2023-11-19T04:14:25;65.28;;;8.98;;
51006;SDS011;37034;47.886;-3.904;2023-11-19T04:16:51;64.38;;;8.43;;
51006;SDS011;37034;47.886;-3.904;2023-11-19T04:19:18;77.18;;;11.32;;
51006;SDS011;37034;47.886;-3.904;2023-11-19T04:21:44;77.82;;;8.55;;
51006;SDS011;37034;47.886;-3.904;2023-11-19T04:24:10;56.00;;;9.23;;
51006;SDS011;37034;47.886;-3.904;2023-11-19T04:26:42;80.35;;;10.98;;
51006;SDS011;37034;47.886;-3.904;2023-11-19T04:29:11;59.80;;;8.20;;
51006;SDS011;37034;47.886;-3.904;2023-11-19T04:31:37;57.20;;;8.60;;
51006;SDS011;37034;47.886;-3.904;2023-11-19T04:34:04;76.32;;;9.48;;
51006;SDS011;37034;47.886;-3.904;2023-11-19T04:36:30;69.35;;;9.38;;
51006;SDS011;37034;47.886;-3.904;2023-11-19T04:38:55;65.73;;;8.43;;
51006;SDS011;37034;47.886;-3.904;2023-11-19T04:41:21;66.63;;;9.23;;
51006;SDS011;37034;47.886;-3.904;2023-11-19T04:43:46;64.03;;;8.90;;
51006;SDS011;37034;47.886;-3.904;2023-11-19T04:46:12;61.60;;;8.30;;
51006;SDS011;37034;47.886;-3.904;2023-11-19T04:48:38;81.73;;;10.50;;
51006;SDS011;37034;47.886;-3.904;2023-11-19T04:51:06;57.10;;;8.67;;
51006;SDS011;37034;47.886;-3.904;2023-11-19T04:53:34;60.55;;;9.00;;
51006;SDS011;37034;47.886;-3.904;2023-11-19T04:56:00;67.85;;;8.52;;
51006;SDS011;37034;47.886;-3.904;2023-11-19T04:58:25;48.23;;;7.40;;
51006;SDS011;37034;47.886;-3.904;2023-11-19T05:00:54;64.00;;;8.23;;
51006;SDS011;37034;47.886;-3.904;2023-11-19T05:03:19;52.53;;;8.10;;
51006;SDS011;37034;47.886;-3.904;2023-11-19T05:05:45;50.73;;;6.67;;
51006;SDS011;37034;47.886;-3.904;2023-11-19T05:08:11;66.20;;;9.50;;
51006;SDS011;37034;47.886;-3.904;2023-11-19T05:10:36;56.13;;;7.13;;
51006;SDS011;37034;47.886;-3.904;2023-11-19T05:13:02;64.77;;;8.30;;
51006;SDS011;37034;47.886;-3.904;2023-11-19T05:15:28;60.90;;;9.27;;
51006;SDS011;37034;47.886;-3.904;2023-11-19T05:17:53;57.83;;;7.90;;
51006;SDS011;37034;47.886;-3.904;2023-11-19T05:20:19;56.33;;;8.23;;
51006;SDS011;37034;47.886;-3.904;2023-11-19T05:22:44;64.07;;;8.93;;
51006;SDS011;37034;47.886;-3.904;2023-11-19T05:25:10;57.40;;;9.00;;
51006;SDS011;37034;47.886;-3.904;2023-11-19T05:27:36;58.10;;;7.82;;
51006;SDS011;37034;47.886;-3.904;2023-11-19T05:30:06;56.20;;;9.13;;
51006;SDS011;37034;47.886;-3.904;2023-11-19T05:32:32;55.40;;;8.00;;
51006;SDS011;37034;47.886;-3.904;2023-11-19T05:34:58;74.55;;;10.70;;
51006;SDS011;37034;47.886;-3.904;2023-11-19T05:37:24;63.70;;;8.10;;
51006;SDS011;37034;47.886;-3.904;2023-11-19T05:39:50;49.28;;;6.35;;
51006;SDS011;37034;47.886;-3.904;2023-11-19T05:44:43;47.92;;;7.57;;
51006;SDS011;37034;47.886;-3.904;2023-11-19T05:47:08;60.87;;;8.20;;
51006;SDS011;37034;47.886;-3.904;2023-11-19T05:49:34;58.03;;;8.37;;
51006;SDS011;37034;47.886;-3.904;2023-11-19T05:52:00;73.72;;;9.98;;
51006;SDS011;37034;47.886;-3.904;2023-11-19T05:54:28;52.90;;;5.90;;
51006;SDS011;37034;47.886;-3.904;2023-11-19T05:56:53;61.73;;;8.33;;
51006;SDS011;37034;47.886;-3.904;2023-11-19T05:59:19;73.10;;;8.18;;
51006;SDS011;37034;47.886;-3.904;2023-11-19T06:01:47;53.53;;;7.05;;
51006;SDS011;37034;47.886;-3.904;2023-11-19T06:04:13;58.00;;;9.15;;
51006;SDS011;37034;47.886;-3.904;2023-11-19T06:06:39;68.73;;;8.53;;
51006;SDS011;37034;47.886;-3.904;2023-11-19T06:09:05;68.00;;;10.07;;
51006;SDS011;37034;47.886;-3.904;2023-11-19T06:11:33;53.40;;;7.43;;
51006;SDS011;37034;47.886;-3.904;2023-11-19T06:13:59;70.20;;;9.90;;
51006;SDS011;37034;47.886;-3.904;2023-11-19T06:16:25;63.22;;;8.90;;
51006;SDS011;37034;47.886;-3.904;2023-11-19T06:18:50;60.70;;;8.00;;
51006;SDS011;37034;47.886;-3.904;2023-11-19T06:21:16;63.67;;;10.20;;
51006;SDS011;37034;47.886;-3.904;2023-11-19T06:23:42;61.03;;;7.40;;
51006;SDS011;37034;47.886;-3.904;2023-11-19T06:26:07;63.83;;;9.07;;
51006;SDS011;37034;47.886;-3.904;2023-11-19T06:28:33;57.97;;;7.70;;
51006;SDS011;37034;47.886;-3.904;2023-11-19T06:30:59;60.63;;;9.00;;
51006;SDS011;37034;47.886;-3.904;2023-11-19T06:33:25;62.58;;;8.65;;
51006;SDS011;37034;47.886;-3.904;2023-11-19T06:35:52;67.65;;;9.82;;
51006;SDS011;37034;47.886;-3.904;2023-11-19T06:38:19;61.17;;;8.85;;
51006;SDS011;37034;47.886;-3.904;2023-11-19T06:40:45;62.63;;;9.10;;
51006;SDS011;37034;47.886;-3.904;2023-11-19T06:43:11;61.47;;;8.50;;
51006;SDS011;37034;47.886;-3.904;2023-11-19T06:45:36;60.17;;;9.50;;
51006;SDS011;37034;47.886;-3.904;2023-11-19T06:48:04;65.55;;;9.48;;
51006;SDS011;37034;47.886;-3.904;2023-11-19T06:50:30;69.05;;;8.80;;
51006;SDS011;37034;47.886;-3.904;2023-11-19T06:55:22;56.03;;;7.75;;
51006;SDS011;37034;47.886;-3.904;2023-11-19T06:57:48;65.00;;;9.20;;
51006;SDS011;37034;47.886;-3.904;2023-11-19T07:00:13;54.47;;;8.03;;
51006;SDS011;37034;47.886;-3.904;2023-11-19T07:02:39;68.32;;;8.27;;
51006;SDS011;37034;47.886;-3.904;2023-11-19T07:05:05;62.40;;;9.33;;
51006;SDS011;37034;47.886;-3.904;2023-11-19T07:07:33;57.42;;;8.60;;
51006;SDS011;37034;47.886;-3.904;2023-11-19T07:09:59;63.83;;;8.27;;
51006;SDS011;37034;47.886;-3.904;2023-11-19T07:12:24;71.57;;;8.30;;
51006;SDS011;37034;47.886;-3.904;2023-11-19T07:14:52;55.40;;;8.18;;
51006;SDS011;37034;47.886;-3.904;2023-11-19T07:17:20;49.75;;;7.82;;
51006;SDS011;37034;47.886;-3.904;2023-11-19T07:19:46;49.97;;;8.03;;
51006;SDS011;37034;47.886;-3.904;2023-11-19T07:24:40;56.42;;;9.05;;
51006;SDS011;37034;47.886;-3.904;2023-11-19T07:27:07;47.78;;;6.40;;
51006;SDS011;37034;47.886;-3.904;2023-11-19T07:29:34;59.85;;;9.18;;
51006;SDS011;37034;47.886;-3.904;2023-11-19T07:32:02;52.42;;;8.90;;
51006;SDS011;37034;47.886;-3.904;2023-11-19T07:36:54;58.05;;;7.82;;
51006;SDS011;37034;47.886;-3.904;2023-11-19T07:39:24;66.28;;;8.95;;
51006;SDS011;37034;47.886;-3.904;2023-11-19T07:41:50;46.53;;;6.67;;
51006;SDS011;37034;47.886;-3.904;2023-11-19T07:44:15;67.73;;;8.43;;
51006;SDS011;37034;47.886;-3.904;2023-11-19T07:46:41;55.67;;;8.15;;
51006;SDS011;37034;47.886;-3.904;2023-11-19T07:49:07;65.97;;;8.45;;
51006;SDS011;37034;47.886;-3.904;2023-11-19T07:51:34;67.55;;;9.18;;
51006;SDS011;37034;47.886;-3.904;2023-11-19T07:54:00;53.25;;;8.32;;
51006;SDS011;37034;47.886;-3.904;2023-11-19T07:56:26;55.10;;;8.13;;
51006;SDS011;37034;47.886;-3.904;2023-11-19T07:58:52;53.08;;;7.65;;
51006;SDS011;37034;47.886;-3.904;2023-11-19T08:01:17;50.90;;;7.43;;
51006;SDS011;37034;47.886;-3.904;2023-11-19T08:03:43;63.45;;;9.88;;
51006;SDS011;37034;47.886;-3.904;2023-11-19T08:06:09;62.07;;;8.13;;
51006;SDS011;37034;47.886;-3.904;2023-11-19T08:08:35;55.88;;;7.15;;
51006;SDS011;37034;47.886;-3.904;2023-11-19T08:11:03;50.10;;;7.63;;
51006;SDS011;37034;47.886;-3.904;2023-11-19T08:13:30;57.42;;;7.97;;
51006;SDS011;37034;47.886;-3.904;2023-11-19T08:15:56;53.15;;;7.05;;
51006;SDS011;37034;47.886;-3.904;2023-11-19T08:20:49;47.63;;;8.23;;
51006;SDS011;37034;47.886;-3.904;2023-11-19T08:23:18;48.78;;;7.18;;
51006;SDS011;37034;47.886;-3.904;2023-11-19T08:25:44;59.70;;;7.93;;
51006;SDS011;37034;47.886;-3.904;2023-11-19T08:28:09;48.57;;;7.23;;
51006;SDS011;37034;47.886;-3.904;2023-11-19T08:30:35;35.60;;;4.30;;
51006;SDS011;37034;47.886;-3.904;2023-11-19T08:33:01;49.50;;;7.30;;
51006;SDS011;37034;47.886;-3.904;2023-11-19T08:35:28;52.17;;;8.18;;
51006;SDS011;37034;47.886;-3.904;2023-11-19T08:37:54;57.63;;;8.73;;
51006;SDS011;37034;47.886;-3.904;2023-11-19T08:40:20;61.67;;;9.20;;
51006;SDS011;37034;47.886;-3.904;2023-11-19T08:42:46;50.50;;;7.03;;
51006;SDS011;37034;47.886;-3.904;2023-11-19T08:45:11;55.13;;;8.07;;
51006;SDS011;37034;47.886;-3.904;2023-11-19T08:47:37;56.47;;;8.53;;
51006;SDS011;37034;47.886;-3.904;2023-11-19T08:50:03;55.47;;;7.23;;
51006;SDS011;37034;47.886;-3.904;2023-11-19T08:52:29;56.22;;;8.48;;
51006;SDS011;37034;47.886;-3.904;2023-11-19T08:54:55;67.55;;;7.78;;
51006;SDS011;37034;47.886;-3.904;2023-11-19T08:57:21;51.07;;;6.70;;
51006;SDS011;37034;47.886;-3.904;2023-11-19T08:59:47;47.15;;;8.55;;
51006;SDS011;37034;47.886;-3.904;2023-11-19T09:02:12;62.13;;;7.83;;
51006;SDS011;37034;47.886;-3.904;2023-11-19T09:04:38;57.90;;;8.55;;
51006;SDS011;37034;47.886;-3.904;2023-11-19T09:07:04;52.55;;;7.60;;
51006;SDS011;37034;47.886;-3.904;2023-11-19T09:09:29;58.23;;;9.23;;
51006;SDS011;37034;47.886;-3.904;2023-11-19T09:11:55;54.95;;;8.80;;
51006;SDS011;37034;47.886;-3.904;2023-11-19T09:14:21;56.28;;;8.13;;
51006;SDS011;37034;47.886;-3.904;2023-11-19T09:16:50;51.05;;;7.38;;
51006;SDS011;37034;47.886;-3.904;2023-11-19T09:19:16;51.88;;;7.07;;
51006;SDS011;37034;47.886;-3.904;2023-11-19T09:21:42;56.38;;;7.68;;
51006;SDS011;37034;47.886;-3.904;2023-11-19T09:24:08;49.40;;;7.55;;
51006;SDS011;37034;47.886;-3.904;2023-11-19T09:26:34;45.97;;;7.27;;
51006;SDS011;37034;47.886;-3.904;2023-11-19T09:29:01;55.30;;;8.10;;
51006;SDS011;37034;47.886;-3.904;2023-11-19T09:31:27;49.22;;;7.82;;
51006;SDS011;37034;47.886;-3.904;2023-11-19T09:33:52;56.37;;;7.00;;
51006;SDS011;37034;47.886;-3.904;2023-11-19T09:36:18;55.67;;;7.60;;
51006;SDS011;37034;47.886;-3.904;2023-11-19T09:38:44;45.95;;;6.65;;
51006;SDS011;37034;47.886;-3.904;2023-11-19T09:41:10;50.72;;;7.45;;
51006;SDS011;37034;47.886;-3.904;2023-11-19T09:43:39;56.17;;;8.07;;
51006;SDS011;37034;47.886;-3.904;2023-11-19T09:46:10;45.33;;;6.05;;
51006;SDS011;37034;47.886;-3.904;2023-11-19T09:48:40;45.78;;;6.93;;
51006;SDS011;37034;47.886;-3.904;2023-11-19T09:51:07;61.65;;;8.82;;
51006;SDS011;37034;47.886;-3.904;2023-11-19T09:53:35;50.45;;;7.85;;
51006;SDS011;37034;47.886;-3.904;2023-11-19T09:56:02;50.17;;;7.45;;
51006;SDS011;37034;47.886;-3.904;2023-11-19T09:58:29;44.08;;;7.50;;
51006;SDS011;37034;47.886;-3.904;2023-11-19T10:00:58;48.97;;;6.43;;
51006;SDS011;37034;47.886;-3.904;2023-11-19T10:05:57;47.72;;;6.35;;
51006;SDS011;37034;47.886;-3.904;2023-11-19T10:10:49;51.50;;;7.55;;
51006;SDS011;37034;47.886;-3.904;2023-11-19T10:13:15;47.85;;;7.05;;
51006;SDS011;37034;47.886;-3.904;2023-11-19T10:15:40;52.03;;;8.07;;
51006;SDS011;37034;47.886;-3.904;2023-11-19T10:18:08;45.28;;;8.45;;
51006;SDS011;37034;47.886;-3.904;2023-11-19T10:20:37;43.53;;;6.83;;
51006;SDS011;37034;47.886;-3.904;2023-11-19T10:23:02;50.72;;;8.27;;
51006;SDS011;37034;47.886;-3.904;2023-11-19T10:25:29;45.33;;;7.20;;
51006;SDS011;37034;47.886;-3.904;2023-11-19T10:27:55;37.35;;;5.65;;
51006;SDS011;37034;47.886;-3.904;2023-11-19T10:33:07;48.13;;;7.05;;
51006;SDS011;37034;47.886;-3.904;2023-11-19T10:35:52;51.20;;;6.85;;
51006;SDS011;37034;47.886;-3.904;2023-11-19T10:38:24;57.47;;;7.97;;
51006;SDS011;37034;47.886;-3.904;2023-11-19T10:40:51;52.05;;;6.63;;
51006;SDS011;37034;47.886;-3.904;2023-11-19T10:45:43;50.60;;;7.63;;
51006;SDS011;37034;47.886;-3.904;2023-11-19T10:48:09;45.38;;;7.55;;
51006;SDS011;37034;47.886;-3.904;2023-11-19T10:50:38;54.05;;;9.80;;
51006;SDS011;37034;47.886;-3.904;2023-11-19T10:53:06;41.65;;;6.60;;
51006;SDS011;37034;47.886;-3.904;2023-11-19T10:55:34;51.90;;;7.22;;
51006;SDS011;37034;47.886;-3.904;2023-11-19T10:58:01;42.80;;;6.85;;
51006;SDS011;37034;47.886;-3.904;2023-11-19T11:03:24;52.28;;;7.65;;
51006;SDS011;37034;47.886;-3.904;2023-11-19T11:05:51;44.55;;;6.75;;
51006;SDS011;37034;47.886;-3.904;2023-11-19T11:08:18;49.67;;;7.63;;
51006;SDS011;37034;47.886;-3.904;2023-11-19T11:10:52;43.55;;;6.82;;
51006;SDS011;37034;47.886;-3.904;2023-11-19T11:13:24;46.45;;;7.60;;
51006;SDS011;37034;47.886;-3.904;2023-11-19T11:15:55;38.40;;;6.38;;
51006;SDS011;37034;47.886;-3.904;2023-11-19T11:18:23;43.72;;;6.63;;
51006;SDS011;37034;47.886;-3.904;2023-11-19T11:20:57;50.97;;;8.55;;
51006;SDS011;37034;47.886;-3.904;2023-11-19T11:29:44;44.67;;;6.70;;
51006;SDS011;37034;47.886;-3.904;2023-11-19T11:38:07;49.13;;;7.50;;
51006;SDS011;37034;47.886;-3.904;2023-11-19T11:40:34;40.47;;;7.03;;
51006;SDS011;37034;47.886;-3.904;2023-11-19T11:43:01;42.00;;;6.28;;
51006;SDS011;37034;47.886;-3.904;2023-11-19T11:45:36;48.83;;;7.07;;
51006;SDS011;37034;47.886;-3.904;2023-11-19T11:48:17;39.35;;;5.75;;
51006;SDS011;37034;47.886;-3.904;2023-11-19T11:50:56;45.75;;;7.13;;
51006;SDS011;37034;47.886;-3.904;2023-11-19T11:58:20;41.50;;;6.87;;
51006;SDS011;37034;47.886;-3.904;2023-11-19T12:00:47;44.05;;;7.65;;
51006;SDS011;37034;47.886;-3.904;2023-11-19T12:03:13;56.40;;;6.75;;
51006;SDS011;37034;47.886;-3.904;2023-11-19T12:05:43;40.08;;;6.75;;
51006;SDS011;37034;47.886;-3.904;2023-11-19T12:08:10;44.83;;;6.47;;
51006;SDS011;37034;47.886;-3.904;2023-11-19T12:10:37;43.28;;;6.75;;
51006;SDS011;37034;47.886;-3.904;2023-11-19T12:13:10;42.42;;;6.93;;
51006;SDS011;37034;47.886;-3.904;2023-11-19T12:18:23;34.75;;;6.10;;
51006;SDS011;37034;47.886;-3.904;2023-11-19T12:20:49;40.17;;;6.45;;
51006;SDS011;37034;47.886;-3.904;2023-11-19T12:23:15;39.58;;;6.22;;
51006;SDS011;37034;47.886;-3.904;2023-11-19T12:25:41;39.45;;;7.00;;
51006;SDS011;37034;47.886;-3.904;2023-11-19T12:28:11;37.47;;;6.05;;
51006;SDS011;37034;47.886;-3.904;2023-11-19T12:30:38;40.10;;;7.38;;
51006;SDS011;37034;47.886;-3.904;2023-11-19T12:33:07;33.40;;;5.65;;
51006;SDS011;37034;47.886;-3.904;2023-11-19T12:35:46;38.13;;;6.50;;
51006;SDS011;37034;47.886;-3.904;2023-11-19T12:38:19;37.53;;;6.07;;
51006;SDS011;37034;47.886;-3.904;2023-11-19T12:41:07;41.70;;;6.07;;
51006;SDS011;37034;47.886;-3.904;2023-11-19T12:43:36;36.15;;;5.97;;
51006;SDS011;37034;47.886;-3.904;2023-11-19T12:46:20;35.83;;;5.85;;
51006;SDS011;37034;47.886;-3.904;2023-11-19T12:48:50;36.53;;;5.45;;
51006;SDS011;37034;47.886;-3.904;2023-11-19T12:51:16;40.35;;;8.13;;
51006;SDS011;37034;47.886;-3.904;2023-11-19T12:53:49;49.28;;;7.25;;
51006;SDS011;37034;47.886;-3.904;2023-11-19T12:56:17;37.88;;;6.55;;
51006;SDS011;37034;47.886;-3.904;2023-11-19T12:58:43;46.90;;;7.07;;
51006;SDS011;37034;47.886;-3.904;2023-11-19T13:01:09;42.30;;;6.45;;
51006;SDS011;37034;47.886;-3.904;2023-11-19T13:03:38;44.88;;;5.82;;
51006;SDS011;37034;47.886;-3.904;2023-11-19T13:06:04;32.72;;;5.63;;
51006;SDS011;37034;47.886;-3.904;2023-11-19T13:08:51;41.58;;;6.28;;
51006;SDS011;37034;47.886;-3.904;2023-11-19T13:11:35;36.42;;;5.82;;
51006;SDS011;37034;47.886;-3.904;2023-11-19T13:14:03;40.83;;;6.68;;
51006;SDS011;37034;47.886;-3.904;2023-11-19T13:16:30;39.83;;;5.90;;
51006;SDS011;37034;47.886;-3.904;2023-11-19T13:18:56;36.65;;;6.03;;
51006;SDS011;37034;47.886;-3.904;2023-11-19T13:21:22;45.97;;;6.50;;
51006;SDS011;37034;47.886;-3.904;2023-11-19T13:23:48;46.20;;;7.22;;
51006;SDS011;37034;47.886;-3.904;2023-11-19T13:26:14;48.42;;;7.20;;
51006;SDS011;37034;47.886;-3.904;2023-11-19T13:28:39;51.20;;;7.87;;
51006;SDS011;37034;47.886;-3.904;2023-11-19T13:31:05;38.83;;;6.90;;
51006;SDS011;37034;47.886;-3.904;2023-11-19T13:33:31;43.90;;;6.82;;
51006;SDS011;37034;47.886;-3.904;2023-11-19T13:35:57;40.90;;;6.50;;
51006;SDS011;37034;47.886;-3.904;2023-11-19T13:38:22;29.35;;;4.95;;
51006;SDS011;37034;47.886;-3.904;2023-11-19T13:40:49;46.00;;;6.53;;
51006;SDS011;37034;47.886;-3.904;2023-11-19T13:43:15;36.97;;;5.32;;
51006;SDS011;37034;47.886;-3.904;2023-11-19T13:45:41;38.65;;;5.47;;
51006;SDS011;37034;47.886;-3.904;2023-11-19T13:48:06;30.07;;;5.07;;
51006;SDS011;37034;47.886;-3.904;2023-11-19T13:50:32;42.33;;;7.10;;
51006;SDS011;37034;47.886;-3.904;2023-11-19T13:52:59;30.08;;;5.38;;
51006;SDS011;37034;47.886;-3.904;2023-11-19T13:55:25;41.58;;;5.85;;
51006;SDS011;37034;47.886;-3.904;2023-11-19T13:57:51;36.13;;;5.43;;
51006;SDS011;37034;47.886;-3.904;2023-11-19T14:00:16;32.70;;;5.43;;
51006;SDS011;37034;47.886;-3.904;2023-11-19T14:02:44;39.83;;;4.70;;
51006;SDS011;37034;47.886;-3.904;2023-11-19T14:05:13;42.55;;;6.60;;
51006;SDS011;37034;47.886;-3.904;2023-11-19T14:07:42;46.55;;;6.30;;
51006;SDS011;37034;47.886;-3.904;2023-11-19T14:12:36;43.30;;;6.85;;
51006;SDS011;37034;47.886;-3.904;2023-11-19T14:15:02;29.73;;;4.78;;
51006;SDS011;37034;47.886;-3.904;2023-11-19T14:17:30;39.55;;;6.50;;
51006;SDS011;37034;47.886;-3.904;2023-11-19T14:19:56;34.57;;;5.83;;
51006;SDS011;37034;47.886;-3.904;2023-11-19T14:22:22;38.60;;;6.43;;
51006;SDS011;37034;47.886;-3.904;2023-11-19T14:24:48;49.53;;;6.18;;
51006;SDS011;37034;47.886;-3.904;2023-11-19T14:27:13;49.15;;;7.43;;
51006;SDS011;37034;47.886;-3.904;2023-11-19T14:29:39;24.02;;;4.75;;
51006;SDS011;37034;47.886;-3.904;2023-11-19T14:32:05;43.50;;;7.28;;
51006;SDS011;37034;47.886;-3.904;2023-11-19T14:34:31;38.60;;;6.03;;
51006;SDS011;37034;47.886;-3.904;2023-11-19T14:36:57;37.10;;;5.95;;
51006;SDS011;37034;47.886;-3.904;2023-11-19T14:39:23;36.03;;;5.90;;
51006;SDS011;37034;47.886;-3.904;2023-11-19T14:41:49;42.65;;;6.75;;
51006;SDS011;37034;47.886;-3.904;2023-11-19T14:44:16;35.85;;;5.75;;
51006;SDS011;37034;47.886;-3.904;2023-11-19T14:46:41;34.90;;;6.15;;
51006;SDS011;37034;47.886;-3.904;2023-11-19T14:49:07;47.20;;;7.07;;
51006;SDS011;37034;47.886;-3.904;2023-11-19T14:51:38;46.28;;;7.40;;
51006;SDS011;37034;47.886;-3.904;2023-11-19T14:54:04;44.72;;;7.15;;
51006;SDS011;37034;47.886;-3.904;2023-11-19T14:56:30;45.35;;;6.85;;
51006;SDS011;37034;47.886;-3.904;2023-11-19T14:58:56;45.25;;;6.60;;
51006;SDS011;37034;47.886;-3.904;2023-11-19T15:01:23;49.00;;;6.50;;
51006;SDS011;37034;47.886;-3.904;2023-11-19T15:03:50;38.20;;;5.70;;
51006;SDS011;37034;47.886;-3.904;2023-11-19T15:06:15;31.70;;;5.55;;
51006;SDS011;37034;47.886;-3.904;2023-11-19T15:08:41;43.50;;;6.47;;
51006;SDS011;37034;47.886;-3.904;2023-11-19T15:11:07;39.40;;;6.43;;
51006;SDS011;37034;47.886;-3.904;2023-11-19T15:13:34;34.72;;;5.82;;
51006;SDS011;37034;47.886;-3.904;2023-11-19T15:16:02;37.92;;;5.97;;